
<gpx xmlns="http://www.topografix.com/GPX/1/1" xmlns:gpxx="http://www.garmin.com/xmlschemas/GpxExtensions/v3" xmlns:wptx1="http://www.garmin.com/xmlschemas/WaypointExtension/v1" xmlns:xsi="http://www.w3.org/2001/XMLSchema-instance" version="1.1" creator="Adze - https://getadze.com/" xsi:schemaLocation="http://www.topografix.com/GPX/1/1 http://www.topografix.com/GPX/1/1/gpx.xsd http://www.garmin.com/xmlschemas/GpxExtensions/v3 http://www8.garmin.com/xmlschemas/GpxExtensionsv3.xsd http://www.garmin.com/xmlschemas/WaypointExtension/v1 http://www8.garmin.com/xmlschemas/WaypointExtensionv1.xsd">
    <metadata>
        <name>Untitled Document</name>
        <link href="http://www.garmin.com"></link>
        <time>2018-03-06T03:49:32.945Z</time>
    </metadata>
    <wpt lon="100.900985" lat="12.909753">
        <ele>21.000000</ele>
        <name>Eastern Grand Palace</name>
        <sym>Building</sym>
        <type>user</type>
        <extensions>
            <gpxx:WaypointExtension>
                <gpxx:DisplayMode>SymbolAndName</gpxx:DisplayMode>
            </gpxx:WaypointExtension>
            <wptx1:WaypointExtension>
                <wptx1:DisplayMode>SymbolAndName</wptx1:DisplayMode>
            </wptx1:WaypointExtension>
        </extensions>
    </wpt>
    <trk>
        <name>May 2006 - Sunday</name>
        <extensions>
            <gpxx:TrackExtension>
                <gpxx:DisplayColor>DarkGray</gpxx:DisplayColor>
            </gpxx:TrackExtension>
        </extensions>
        <trkseg>
            <trkpt lon="100.901055" lat="12.907777">
                <ele>38.590088</ele>
                <time>2006-05-28T03:42:00Z</time>
            </trkpt>
            <trkpt lon="100.901098" lat="12.907755">
                <ele>28.496216</ele>
                <time>2006-05-28T03:42:22Z</time>
            </trkpt>
            <trkpt lon="100.901141" lat="12.907691">
                <ele>28.015503</ele>
                <time>2006-05-28T03:42:31Z</time>
            </trkpt>
            <trkpt lon="100.901098" lat="12.907283">
                <ele>25.612305</ele>
                <time>2006-05-28T03:42:47Z</time>
            </trkpt>
            <trkpt lon="100.900970" lat="12.906682">
                <ele>23.689575</ele>
                <time>2006-05-28T03:43:05Z</time>
            </trkpt>
            <trkpt lon="100.900927" lat="12.906210">
                <ele>23.208984</ele>
                <time>2006-05-28T03:43:18Z</time>
            </trkpt>
            <trkpt lon="100.900841" lat="12.905631">
                <ele>22.728271</ele>
                <time>2006-05-28T03:43:32Z</time>
            </trkpt>
            <trkpt lon="100.900862" lat="12.905459">
                <ele>22.247559</ele>
                <time>2006-05-28T03:43:36Z</time>
            </trkpt>
            <trkpt lon="100.900841" lat="12.905288">
                <ele>21.766968</ele>
                <time>2006-05-28T03:43:40Z</time>
            </trkpt>
            <trkpt lon="100.900712" lat="12.904601">
                <ele>21.766968</ele>
                <time>2006-05-28T03:43:59Z</time>
            </trkpt>
            <trkpt lon="100.900626" lat="12.903936">
                <ele>22.247559</ele>
                <time>2006-05-28T03:44:18Z</time>
            </trkpt>
            <trkpt lon="100.900583" lat="12.903378">
                <ele>22.247559</ele>
                <time>2006-05-28T03:44:33Z</time>
            </trkpt>
            <trkpt lon="100.900476" lat="12.902906">
                <ele>23.208984</ele>
                <time>2006-05-28T03:44:45Z</time>
            </trkpt>
            <trkpt lon="100.900433" lat="12.902219">
                <ele>21.766968</ele>
                <time>2006-05-28T03:45:00Z</time>
            </trkpt>
            <trkpt lon="100.900304" lat="12.901425">
                <ele>20.324951</ele>
                <time>2006-05-28T03:45:16Z</time>
            </trkpt>
            <trkpt lon="100.900240" lat="12.900567">
                <ele>22.247559</ele>
                <time>2006-05-28T03:45:37Z</time>
            </trkpt>
            <trkpt lon="100.900176" lat="12.899837">
                <ele>24.170288</ele>
                <time>2006-05-28T03:45:56Z</time>
            </trkpt>
            <trkpt lon="100.900090" lat="12.899408">
                <ele>25.131714</ele>
                <time>2006-05-28T03:46:08Z</time>
            </trkpt>
            <trkpt lon="100.900090" lat="12.899365">
                <ele>25.131714</ele>
                <time>2006-05-28T03:46:09Z</time>
            </trkpt>
            <trkpt lon="100.900025" lat="12.898722">
                <ele>26.092896</ele>
                <time>2006-05-28T03:46:25Z</time>
            </trkpt>
            <trkpt lon="100.900004" lat="12.898550">
                <ele>26.573608</ele>
                <time>2006-05-28T03:46:29Z</time>
            </trkpt>
            <trkpt lon="100.900004" lat="12.898378">
                <ele>26.573608</ele>
                <time>2006-05-28T03:46:33Z</time>
            </trkpt>
            <trkpt lon="100.899918" lat="12.897606">
                <ele>27.054321</ele>
                <time>2006-05-28T03:46:52Z</time>
            </trkpt>
            <trkpt lon="100.899832" lat="12.896984">
                <ele>27.054321</ele>
                <time>2006-05-28T03:47:07Z</time>
            </trkpt>
            <trkpt lon="100.899768" lat="12.896082">
                <ele>26.573608</ele>
                <time>2006-05-28T03:47:27Z</time>
            </trkpt>
            <trkpt lon="100.899746" lat="12.895997">
                <ele>26.092896</ele>
                <time>2006-05-28T03:47:29Z</time>
            </trkpt>
            <trkpt lon="100.899704" lat="12.895696">
                <ele>26.092896</ele>
                <time>2006-05-28T03:47:36Z</time>
            </trkpt>
            <trkpt lon="100.899661" lat="12.895052">
                <ele>26.092896</ele>
                <time>2006-05-28T03:47:50Z</time>
            </trkpt>
            <trkpt lon="100.899682" lat="12.894623">
                <ele>25.131714</ele>
                <time>2006-05-28T03:48:02Z</time>
            </trkpt>
            <trkpt lon="100.899682" lat="12.894344">
                <ele>26.573608</ele>
                <time>2006-05-28T03:48:13Z</time>
            </trkpt>
            <trkpt lon="100.899789" lat="12.893486">
                <ele>26.573608</ele>
                <time>2006-05-28T03:48:31Z</time>
            </trkpt>
            <trkpt lon="100.899918" lat="12.892778">
                <ele>24.651001</ele>
                <time>2006-05-28T03:48:46Z</time>
            </trkpt>
            <trkpt lon="100.900111" lat="12.891963">
                <ele>22.728271</ele>
                <time>2006-05-28T03:49:07Z</time>
            </trkpt>
            <trkpt lon="100.900283" lat="12.891340">
                <ele>19.844360</ele>
                <time>2006-05-28T03:49:22Z</time>
            </trkpt>
            <trkpt lon="100.900326" lat="12.891233">
                <ele>19.844360</ele>
                <time>2006-05-28T03:49:24Z</time>
            </trkpt>
            <trkpt lon="100.900433" lat="12.891040">
                <ele>19.844360</ele>
                <time>2006-05-28T03:49:29Z</time>
            </trkpt>
            <trkpt lon="100.900519" lat="12.890933">
                <ele>20.324951</ele>
                <time>2006-05-28T03:49:32Z</time>
            </trkpt>
            <trkpt lon="100.900862" lat="12.890246">
                <ele>20.805664</ele>
                <time>2006-05-28T03:49:49Z</time>
            </trkpt>
            <trkpt lon="100.901034" lat="12.889709">
                <ele>19.844360</ele>
                <time>2006-05-28T03:50:05Z</time>
            </trkpt>
            <trkpt lon="100.901270" lat="12.889237">
                <ele>21.286377</ele>
                <time>2006-05-28T03:50:18Z</time>
            </trkpt>
            <trkpt lon="100.901463" lat="12.888787">
                <ele>22.728271</ele>
                <time>2006-05-28T03:50:37Z</time>
            </trkpt>
            <trkpt lon="100.901635" lat="12.888379">
                <ele>22.728271</ele>
                <time>2006-05-28T03:50:54Z</time>
            </trkpt>
            <trkpt lon="100.901828" lat="12.887886">
                <ele>22.247559</ele>
                <time>2006-05-28T03:51:12Z</time>
            </trkpt>
            <trkpt lon="100.902021" lat="12.887499">
                <ele>23.208984</ele>
                <time>2006-05-28T03:51:26Z</time>
            </trkpt>
            <trkpt lon="100.902171" lat="12.887027">
                <ele>22.728271</ele>
                <time>2006-05-28T03:51:40Z</time>
            </trkpt>
            <trkpt lon="100.902472" lat="12.886319">
                <ele>22.728271</ele>
                <time>2006-05-28T03:51:57Z</time>
            </trkpt>
            <trkpt lon="100.902708" lat="12.885783">
                <ele>18.402344</ele>
                <time>2006-05-28T03:52:13Z</time>
            </trkpt>
            <trkpt lon="100.902836" lat="12.885439">
                <ele>16.479736</ele>
                <time>2006-05-28T03:52:26Z</time>
            </trkpt>
            <trkpt lon="100.902879" lat="12.885311">
                <ele>15.999023</ele>
                <time>2006-05-28T03:52:29Z</time>
            </trkpt>
            <trkpt lon="100.902879" lat="12.885225">
                <ele>15.518433</ele>
                <time>2006-05-28T03:52:31Z</time>
            </trkpt>
            <trkpt lon="100.902944" lat="12.885075">
                <ele>15.518433</ele>
                <time>2006-05-28T03:52:35Z</time>
            </trkpt>
            <trkpt lon="100.903051" lat="12.884860">
                <ele>16.479736</ele>
                <time>2006-05-28T03:52:41Z</time>
            </trkpt>
            <trkpt lon="100.903308" lat="12.884281">
                <ele>15.999023</ele>
                <time>2006-05-28T03:52:56Z</time>
            </trkpt>
            <trkpt lon="100.903544" lat="12.883701">
                <ele>17.921753</ele>
                <time>2006-05-28T03:53:14Z</time>
            </trkpt>
            <trkpt lon="100.903845" lat="12.882886">
                <ele>17.921753</ele>
                <time>2006-05-28T03:53:38Z</time>
            </trkpt>
            <trkpt lon="100.904167" lat="12.882264">
                <ele>20.805664</ele>
                <time>2006-05-28T03:53:59Z</time>
            </trkpt>
            <trkpt lon="100.904317" lat="12.881856">
                <ele>22.247559</ele>
                <time>2006-05-28T03:54:11Z</time>
            </trkpt>
            <trkpt lon="100.904510" lat="12.881448">
                <ele>23.208984</ele>
                <time>2006-05-28T03:54:22Z</time>
            </trkpt>
            <trkpt lon="100.904810" lat="12.880697">
                <ele>23.208984</ele>
                <time>2006-05-28T03:54:40Z</time>
            </trkpt>
            <trkpt lon="100.905154" lat="12.879903">
                <ele>21.766968</ele>
                <time>2006-05-28T03:54:58Z</time>
            </trkpt>
            <trkpt lon="100.905282" lat="12.879517">
                <ele>22.728271</ele>
                <time>2006-05-28T03:55:07Z</time>
            </trkpt>
            <trkpt lon="100.905368" lat="12.879388">
                <ele>24.170288</ele>
                <time>2006-05-28T03:55:11Z</time>
            </trkpt>
            <trkpt lon="100.905519" lat="12.878981">
                <ele>23.689575</ele>
                <time>2006-05-28T03:55:23Z</time>
            </trkpt>
            <trkpt lon="100.905647" lat="12.878723">
                <ele>24.170288</ele>
                <time>2006-05-28T03:55:36Z</time>
            </trkpt>
            <trkpt lon="100.905776" lat="12.878423">
                <ele>23.689575</ele>
                <time>2006-05-28T03:55:47Z</time>
            </trkpt>
            <trkpt lon="100.905948" lat="12.878036">
                <ele>24.651001</ele>
                <time>2006-05-28T03:56:03Z</time>
            </trkpt>
            <trkpt lon="100.906119" lat="12.877586">
                <ele>24.170288</ele>
                <time>2006-05-28T03:56:15Z</time>
            </trkpt>
            <trkpt lon="100.906484" lat="12.876770">
                <ele>24.170288</ele>
                <time>2006-05-28T03:56:33Z</time>
            </trkpt>
            <trkpt lon="100.906742" lat="12.876170">
                <ele>22.728271</ele>
                <time>2006-05-28T03:56:44Z</time>
            </trkpt>
            <trkpt lon="100.907128" lat="12.875226">
                <ele>22.247559</ele>
                <time>2006-05-28T03:57:03Z</time>
            </trkpt>
            <trkpt lon="100.907385" lat="12.874603">
                <ele>22.247559</ele>
                <time>2006-05-28T03:57:15Z</time>
            </trkpt>
            <trkpt lon="100.907664" lat="12.873895">
                <ele>21.286377</ele>
                <time>2006-05-28T03:57:30Z</time>
            </trkpt>
            <trkpt lon="100.907750" lat="12.873681">
                <ele>19.363770</ele>
                <time>2006-05-28T03:57:44Z</time>
            </trkpt>
            <trkpt lon="100.907750" lat="12.873616">
                <ele>20.324951</ele>
                <time>2006-05-28T03:58:23Z</time>
            </trkpt>
            <trkpt lon="100.907450" lat="12.873487">
                <ele>19.844360</ele>
                <time>2006-05-28T03:58:35Z</time>
            </trkpt>
            <trkpt lon="100.907342" lat="12.873466">
                <ele>18.883057</ele>
                <time>2006-05-28T03:58:44Z</time>
            </trkpt>
            <trkpt lon="100.907407" lat="12.873487">
                <ele>18.402344</ele>
                <time>2006-05-28T03:58:48Z</time>
            </trkpt>
            <trkpt lon="100.907815" lat="12.873573">
                <ele>19.844360</ele>
                <time>2006-05-28T03:59:02Z</time>
            </trkpt>
            <trkpt lon="100.907943" lat="12.873230">
                <ele>19.363770</ele>
                <time>2006-05-28T03:59:13Z</time>
            </trkpt>
            <trkpt lon="100.908008" lat="12.873123">
                <ele>19.363770</ele>
                <time>2006-05-28T03:59:20Z</time>
            </trkpt>
            <trkpt lon="100.908093" lat="12.873101">
                <ele>18.883057</ele>
                <time>2006-05-28T03:59:33Z</time>
            </trkpt>
            <trkpt lon="100.908351" lat="12.873187">
                <ele>18.883057</ele>
                <time>2006-05-28T03:59:45Z</time>
            </trkpt>
            <trkpt lon="100.909016" lat="12.873380">
                <ele>18.402344</ele>
                <time>2006-05-28T04:00:02Z</time>
            </trkpt>
            <trkpt lon="100.909595" lat="12.873616">
                <ele>19.363770</ele>
                <time>2006-05-28T04:00:18Z</time>
            </trkpt>
            <trkpt lon="100.910389" lat="12.873874">
                <ele>19.844360</ele>
                <time>2006-05-28T04:00:38Z</time>
            </trkpt>
            <trkpt lon="100.911098" lat="12.874174">
                <ele>20.805664</ele>
                <time>2006-05-28T04:00:56Z</time>
            </trkpt>
            <trkpt lon="100.911591" lat="12.874324">
                <ele>21.286377</ele>
                <time>2006-05-28T04:01:09Z</time>
            </trkpt>
            <trkpt lon="100.911956" lat="12.874496">
                <ele>21.286377</ele>
                <time>2006-05-28T04:01:21Z</time>
            </trkpt>
            <trkpt lon="100.912042" lat="12.874968">
                <ele>23.689575</ele>
                <time>2006-05-28T04:01:37Z</time>
            </trkpt>
            <trkpt lon="100.912042" lat="12.875397">
                <ele>26.092896</ele>
                <time>2006-05-28T04:01:52Z</time>
            </trkpt>
            <trkpt lon="100.912192" lat="12.875655">
                <ele>27.054321</ele>
                <time>2006-05-28T04:02:03Z</time>
            </trkpt>
            <trkpt lon="100.912406" lat="12.875826">
                <ele>28.015503</ele>
                <time>2006-05-28T04:02:13Z</time>
            </trkpt>
            <trkpt lon="100.912385" lat="12.875762">
                <ele>27.534912</ele>
                <time>2006-05-28T04:02:19Z</time>
            </trkpt>
            <trkpt lon="100.912149" lat="12.875590">
                <ele>27.054321</ele>
                <time>2006-05-28T04:02:27Z</time>
            </trkpt>
            <trkpt lon="100.912042" lat="12.875311">
                <ele>27.054321</ele>
                <time>2006-05-28T04:02:34Z</time>
            </trkpt>
            <trkpt lon="100.912042" lat="12.875011">
                <ele>26.092896</ele>
                <time>2006-05-28T04:02:45Z</time>
            </trkpt>
            <trkpt lon="100.912063" lat="12.874818">
                <ele>25.612305</ele>
                <time>2006-05-28T04:02:50Z</time>
            </trkpt>
            <trkpt lon="100.912042" lat="12.874689">
                <ele>25.131714</ele>
                <time>2006-05-28T04:02:53Z</time>
            </trkpt>
            <trkpt lon="100.911977" lat="12.874517">
                <ele>24.170288</ele>
                <time>2006-05-28T04:02:57Z</time>
            </trkpt>
            <trkpt lon="100.911891" lat="12.874410">
                <ele>24.170288</ele>
                <time>2006-05-28T04:03:02Z</time>
            </trkpt>
            <trkpt lon="100.911806" lat="12.874346">
                <ele>23.689575</ele>
                <time>2006-05-28T04:03:09Z</time>
            </trkpt>
            <trkpt lon="100.911548" lat="12.874346">
                <ele>22.728271</ele>
                <time>2006-05-28T04:03:21Z</time>
            </trkpt>
            <trkpt lon="100.911419" lat="12.874324">
                <ele>22.728271</ele>
                <time>2006-05-28T04:03:24Z</time>
            </trkpt>
            <trkpt lon="100.910754" lat="12.874024">
                <ele>23.208984</ele>
                <time>2006-05-28T04:03:38Z</time>
            </trkpt>
            <trkpt lon="100.910003" lat="12.873745">
                <ele>22.247559</ele>
                <time>2006-05-28T04:03:52Z</time>
            </trkpt>
            <trkpt lon="100.909488" lat="12.873573">
                <ele>20.805664</ele>
                <time>2006-05-28T04:04:02Z</time>
            </trkpt>
            <trkpt lon="100.908544" lat="12.873251">
                <ele>20.324951</ele>
                <time>2006-05-28T04:04:21Z</time>
            </trkpt>
            <trkpt lon="100.908415" lat="12.873187">
                <ele>20.324951</ele>
                <time>2006-05-28T04:04:24Z</time>
            </trkpt>
            <trkpt lon="100.908394" lat="12.873058">
                <ele>19.844360</ele>
                <time>2006-05-28T04:04:28Z</time>
            </trkpt>
            <trkpt lon="100.908737" lat="12.872372">
                <ele>17.441162</ele>
                <time>2006-05-28T04:04:41Z</time>
            </trkpt>
            <trkpt lon="100.909188" lat="12.871642">
                <ele>14.557007</ele>
                <time>2006-05-28T04:04:56Z</time>
            </trkpt>
            <trkpt lon="100.909317" lat="12.871277">
                <ele>15.037720</ele>
                <time>2006-05-28T04:05:06Z</time>
            </trkpt>
            <trkpt lon="100.909617" lat="12.870913">
                <ele>14.557007</ele>
                <time>2006-05-28T04:05:19Z</time>
            </trkpt>
            <trkpt lon="100.909724" lat="12.870848">
                <ele>15.037720</ele>
                <time>2006-05-28T04:05:23Z</time>
            </trkpt>
            <trkpt lon="100.909703" lat="12.870827">
                <ele>13.595825</ele>
                <time>2006-05-28T04:05:26Z</time>
            </trkpt>
            <trkpt lon="100.909703" lat="12.870741">
                <ele>11.192505</ele>
                <time>2006-05-28T04:05:43Z</time>
            </trkpt>
            <trkpt lon="100.909767" lat="12.870741">
                <ele>11.673218</ele>
                <time>2006-05-28T04:06:07Z</time>
            </trkpt>
            <trkpt lon="100.909789" lat="12.870719">
                <ele>12.153809</ele>
                <time>2006-05-28T04:06:10Z</time>
            </trkpt>
            <trkpt lon="100.909874" lat="12.870677">
                <ele>11.673218</ele>
                <time>2006-05-28T04:06:22Z</time>
            </trkpt>
            <trkpt lon="100.909874" lat="12.870677">
                <ele>12.153809</ele>
                <time>2006-05-28T04:06:38Z</time>
            </trkpt>
            <trkpt lon="100.909960" lat="12.870569">
                <ele>12.634399</ele>
                <time>2006-05-28T04:06:43Z</time>
            </trkpt>
            <trkpt lon="100.910089" lat="12.870119">
                <ele>12.634399</ele>
                <time>2006-05-28T04:06:56Z</time>
            </trkpt>
            <trkpt lon="100.910261" lat="12.869389">
                <ele>14.076416</ele>
                <time>2006-05-28T04:07:12Z</time>
            </trkpt>
            <trkpt lon="100.910196" lat="12.869174">
                <ele>13.595825</ele>
                <time>2006-05-28T04:07:17Z</time>
            </trkpt>
            <trkpt lon="100.910218" lat="12.868981">
                <ele>13.115112</ele>
                <time>2006-05-28T04:07:22Z</time>
            </trkpt>
            <trkpt lon="100.910625" lat="12.868080">
                <ele>15.037720</ele>
                <time>2006-05-28T04:07:44Z</time>
            </trkpt>
            <trkpt lon="100.910990" lat="12.867243">
                <ele>15.999023</ele>
                <time>2006-05-28T04:08:05Z</time>
            </trkpt>
            <trkpt lon="100.911291" lat="12.867050">
                <ele>16.479736</ele>
                <time>2006-05-28T04:08:16Z</time>
            </trkpt>
            <trkpt lon="100.911849" lat="12.867351">
                <ele>17.921753</ele>
                <time>2006-05-28T04:08:30Z</time>
            </trkpt>
            <trkpt lon="100.912557" lat="12.867973">
                <ele>19.844360</ele>
                <time>2006-05-28T04:08:47Z</time>
            </trkpt>
            <trkpt lon="100.912685" lat="12.867973">
                <ele>18.883057</ele>
                <time>2006-05-28T04:08:52Z</time>
            </trkpt>
            <trkpt lon="100.912728" lat="12.867844">
                <ele>17.441162</ele>
                <time>2006-05-28T04:08:55Z</time>
            </trkpt>
            <trkpt lon="100.912814" lat="12.867179">
                <ele>19.363770</ele>
                <time>2006-05-28T04:09:07Z</time>
            </trkpt>
            <trkpt lon="100.913007" lat="12.866642">
                <ele>18.883057</ele>
                <time>2006-05-28T04:09:16Z</time>
            </trkpt>
            <trkpt lon="100.913415" lat="12.866664">
                <ele>19.363770</ele>
                <time>2006-05-28T04:09:23Z</time>
            </trkpt>
            <trkpt lon="100.913587" lat="12.866578">
                <ele>19.363770</ele>
                <time>2006-05-28T04:09:27Z</time>
            </trkpt>
            <trkpt lon="100.913758" lat="12.865741">
                <ele>17.441162</ele>
                <time>2006-05-28T04:09:45Z</time>
            </trkpt>
            <trkpt lon="100.913801" lat="12.864819">
                <ele>19.844360</ele>
                <time>2006-05-28T04:10:07Z</time>
            </trkpt>
            <trkpt lon="100.913758" lat="12.864389">
                <ele>18.883057</ele>
                <time>2006-05-28T04:10:15Z</time>
            </trkpt>
            <trkpt lon="100.914037" lat="12.864261">
                <ele>18.402344</ele>
                <time>2006-05-28T04:10:21Z</time>
            </trkpt>
            <trkpt lon="100.914209" lat="12.864261">
                <ele>17.441162</ele>
                <time>2006-05-28T04:10:24Z</time>
            </trkpt>
            <trkpt lon="100.914466" lat="12.864153">
                <ele>15.999023</ele>
                <time>2006-05-28T04:10:28Z</time>
            </trkpt>
            <trkpt lon="100.914660" lat="12.863896">
                <ele>14.557007</ele>
                <time>2006-05-28T04:10:38Z</time>
            </trkpt>
            <trkpt lon="100.914681" lat="12.863896">
                <ele>14.076416</ele>
                <time>2006-05-28T04:10:39Z</time>
            </trkpt>
            <trkpt lon="100.915282" lat="12.863681">
                <ele>11.192505</ele>
                <time>2006-05-28T04:10:51Z</time>
            </trkpt>
            <trkpt lon="100.916011" lat="12.863424">
                <ele>8.789185</ele>
                <time>2006-05-28T04:11:04Z</time>
            </trkpt>
            <trkpt lon="100.916333" lat="12.863317">
                <ele>8.308594</ele>
                <time>2006-05-28T04:11:10Z</time>
            </trkpt>
            <trkpt lon="100.916398" lat="12.863102">
                <ele>8.308594</ele>
                <time>2006-05-28T04:11:16Z</time>
            </trkpt>
            <trkpt lon="100.916312" lat="12.862866">
                <ele>7.827881</ele>
                <time>2006-05-28T04:11:27Z</time>
            </trkpt>
            <trkpt lon="100.916312" lat="12.862866">
                <ele>9.750610</ele>
                <time>2006-05-28T04:11:41Z</time>
            </trkpt>
            <trkpt lon="100.916398" lat="12.862780">
                <ele>8.308594</ele>
                <time>2006-05-28T04:11:57Z</time>
            </trkpt>
            <trkpt lon="100.916462" lat="12.862737">
                <ele>7.827881</ele>
                <time>2006-05-28T04:12:05Z</time>
            </trkpt>
            <trkpt lon="100.916483" lat="12.862651">
                <ele>6.866455</ele>
                <time>2006-05-28T04:12:20Z</time>
            </trkpt>
            <trkpt lon="100.916505" lat="12.862630">
                <ele>6.385864</ele>
                <time>2006-05-28T04:12:22Z</time>
            </trkpt>
            <trkpt lon="100.916569" lat="12.862608">
                <ele>6.385864</ele>
                <time>2006-05-28T04:12:32Z</time>
            </trkpt>
            <trkpt lon="100.916934" lat="12.862587">
                <ele>5.905273</ele>
                <time>2006-05-28T04:12:47Z</time>
            </trkpt>
            <trkpt lon="100.917299" lat="12.862544">
                <ele>5.424561</ele>
                <time>2006-05-28T04:13:04Z</time>
            </trkpt>
            <trkpt lon="100.917363" lat="12.862544">
                <ele>6.385864</ele>
                <time>2006-05-28T04:13:17Z</time>
            </trkpt>
            <trkpt lon="100.917578" lat="12.862544">
                <ele>6.866455</ele>
                <time>2006-05-28T04:13:31Z</time>
            </trkpt>
            <trkpt lon="100.917749" lat="12.862523">
                <ele>7.347168</ele>
                <time>2006-05-28T04:13:46Z</time>
            </trkpt>
            <trkpt lon="100.917728" lat="12.862351">
                <ele>7.827881</ele>
                <time>2006-05-28T04:14:04Z</time>
            </trkpt>
            <trkpt lon="100.917685" lat="12.862222">
                <ele>7.347168</ele>
                <time>2006-05-28T04:14:18Z</time>
            </trkpt>
            <trkpt lon="100.917664" lat="12.862029">
                <ele>7.827881</ele>
                <time>2006-05-28T04:14:36Z</time>
            </trkpt>
            <trkpt lon="100.917728" lat="12.861729">
                <ele>7.827881</ele>
                <time>2006-05-28T04:15:02Z</time>
            </trkpt>
            <trkpt lon="100.917771" lat="12.861600">
                <ele>7.827881</ele>
                <time>2006-05-28T04:15:20Z</time>
            </trkpt>
            <trkpt lon="100.917792" lat="12.861342">
                <ele>7.827881</ele>
                <time>2006-05-28T04:15:34Z</time>
            </trkpt>
            <trkpt lon="100.917749" lat="12.861128">
                <ele>7.827881</ele>
                <time>2006-05-28T04:15:52Z</time>
            </trkpt>
            <trkpt lon="100.917771" lat="12.861106">
                <ele>7.347168</ele>
                <time>2006-05-28T04:16:04Z</time>
            </trkpt>
            <trkpt lon="100.917749" lat="12.860978">
                <ele>7.827881</ele>
                <time>2006-05-28T04:16:25Z</time>
            </trkpt>
            <trkpt lon="100.917664" lat="12.860720">
                <ele>9.269897</ele>
                <time>2006-05-28T04:16:41Z</time>
            </trkpt>
            <trkpt lon="100.917642" lat="12.860312">
                <ele>9.269897</ele>
                <time>2006-05-28T04:16:56Z</time>
            </trkpt>
            <trkpt lon="100.917664" lat="12.860205">
                <ele>9.269897</ele>
                <time>2006-05-28T04:17:00Z</time>
            </trkpt>
            <trkpt lon="100.917814" lat="12.860119">
                <ele>8.789185</ele>
                <time>2006-05-28T04:17:05Z</time>
            </trkpt>
            <trkpt lon="100.917921" lat="12.859926">
                <ele>9.269897</ele>
                <time>2006-05-28T04:17:11Z</time>
            </trkpt>
            <trkpt lon="100.917985" lat="12.859755">
                <ele>8.789185</ele>
                <time>2006-05-28T04:17:16Z</time>
            </trkpt>
            <trkpt lon="100.918393" lat="12.859690">
                <ele>8.308594</ele>
                <time>2006-05-28T04:17:26Z</time>
            </trkpt>
            <trkpt lon="100.918500" lat="12.859583">
                <ele>7.347168</ele>
                <time>2006-05-28T04:17:30Z</time>
            </trkpt>
            <trkpt lon="100.918629" lat="12.859154">
                <ele>7.347168</ele>
                <time>2006-05-28T04:17:41Z</time>
            </trkpt>
            <trkpt lon="100.918822" lat="12.858725">
                <ele>7.347168</ele>
                <time>2006-05-28T04:17:53Z</time>
            </trkpt>
            <trkpt lon="100.919337" lat="12.858810">
                <ele>8.308594</ele>
                <time>2006-05-28T04:18:06Z</time>
            </trkpt>
            <trkpt lon="100.920367" lat="12.858982">
                <ele>8.308594</ele>
                <time>2006-05-28T04:18:26Z</time>
            </trkpt>
            <trkpt lon="100.921655" lat="12.859175">
                <ele>9.750610</ele>
                <time>2006-05-28T04:18:52Z</time>
            </trkpt>
            <trkpt lon="100.922835" lat="12.859368">
                <ele>13.115112</ele>
                <time>2006-05-28T04:19:17Z</time>
            </trkpt>
            <trkpt lon="100.923543" lat="12.859476">
                <ele>15.037720</ele>
                <time>2006-05-28T04:19:33Z</time>
            </trkpt>
            <trkpt lon="100.924766" lat="12.859690">
                <ele>15.999023</ele>
                <time>2006-05-28T04:19:56Z</time>
            </trkpt>
            <trkpt lon="100.925860" lat="12.859862">
                <ele>16.960449</ele>
                <time>2006-05-28T04:20:16Z</time>
            </trkpt>
            <trkpt lon="100.927041" lat="12.860034">
                <ele>18.402344</ele>
                <time>2006-05-28T04:20:39Z</time>
            </trkpt>
            <trkpt lon="100.927985" lat="12.860205">
                <ele>21.286377</ele>
                <time>2006-05-28T04:20:59Z</time>
            </trkpt>
            <trkpt lon="100.929101" lat="12.860506">
                <ele>19.363770</ele>
                <time>2006-05-28T04:21:19Z</time>
            </trkpt>
            <trkpt lon="100.930452" lat="12.860935">
                <ele>20.805664</ele>
                <time>2006-05-28T04:21:43Z</time>
            </trkpt>
            <trkpt lon="100.931718" lat="12.861321">
                <ele>22.247559</ele>
                <time>2006-05-28T04:22:07Z</time>
            </trkpt>
            <trkpt lon="100.933113" lat="12.861772">
                <ele>20.805664</ele>
                <time>2006-05-28T04:22:32Z</time>
            </trkpt>
            <trkpt lon="100.934529" lat="12.862222">
                <ele>20.805664</ele>
                <time>2006-05-28T04:22:56Z</time>
            </trkpt>
            <trkpt lon="100.935109" lat="12.862458">
                <ele>20.805664</ele>
                <time>2006-05-28T04:23:10Z</time>
            </trkpt>
            <trkpt lon="100.935173" lat="12.862523">
                <ele>21.286377</ele>
                <time>2006-05-28T04:23:21Z</time>
            </trkpt>
            <trkpt lon="100.935044" lat="12.862480">
                <ele>25.612305</ele>
                <time>2006-05-28T04:23:43Z</time>
            </trkpt>
            <trkpt lon="100.934980" lat="12.862415">
                <ele>29.457520</ele>
                <time>2006-05-28T04:29:56Z</time>
            </trkpt>
            <trkpt lon="100.935044" lat="12.862458">
                <ele>26.573608</ele>
                <time>2006-05-28T04:30:16Z</time>
            </trkpt>
            <trkpt lon="100.935023" lat="12.862437">
                <ele>23.208984</ele>
                <time>2006-05-28T04:31:18Z</time>
            </trkpt>
            <trkpt lon="100.935023" lat="12.862437">
                <ele>20.324951</ele>
                <time>2006-05-28T04:32:28Z</time>
            </trkpt>
            <trkpt lon="100.935001" lat="12.862415">
                <ele>28.015503</ele>
                <time>2006-05-28T04:35:59Z</time>
            </trkpt>
            <trkpt lon="100.935001" lat="12.862415">
                <ele>25.131714</ele>
                <time>2006-05-28T04:36:42Z</time>
            </trkpt>
            <trkpt lon="100.934980" lat="12.862394">
                <ele>26.092896</ele>
                <time>2006-05-28T04:37:07Z</time>
            </trkpt>
            <trkpt lon="100.934980" lat="12.862394">
                <ele>25.612305</ele>
                <time>2006-05-28T04:37:20Z</time>
            </trkpt>
            <trkpt lon="100.935001" lat="12.862394">
                <ele>24.651001</ele>
                <time>2006-05-28T04:37:35Z</time>
            </trkpt>
            <trkpt lon="100.935044" lat="12.862394">
                <ele>24.170288</ele>
                <time>2006-05-28T04:37:39Z</time>
            </trkpt>
            <trkpt lon="100.935173" lat="12.862437">
                <ele>23.689575</ele>
                <time>2006-05-28T04:37:46Z</time>
            </trkpt>
            <trkpt lon="100.935173" lat="12.862802">
                <ele>24.170288</ele>
                <time>2006-05-28T04:38:01Z</time>
            </trkpt>
            <trkpt lon="100.935130" lat="12.863488">
                <ele>25.131714</ele>
                <time>2006-05-28T04:38:20Z</time>
            </trkpt>
            <trkpt lon="100.935109" lat="12.864389">
                <ele>28.015503</ele>
                <time>2006-05-28T04:38:42Z</time>
            </trkpt>
            <trkpt lon="100.935109" lat="12.864969">
                <ele>28.015503</ele>
                <time>2006-05-28T04:38:57Z</time>
            </trkpt>
            <trkpt lon="100.934765" lat="12.865870">
                <ele>27.054321</ele>
                <time>2006-05-28T04:39:20Z</time>
            </trkpt>
            <trkpt lon="100.934315" lat="12.866857">
                <ele>23.689575</ele>
                <time>2006-05-28T04:39:42Z</time>
            </trkpt>
            <trkpt lon="100.934272" lat="12.866964">
                <ele>23.689575</ele>
                <time>2006-05-28T04:39:44Z</time>
            </trkpt>
            <trkpt lon="100.934336" lat="12.867351">
                <ele>22.728271</ele>
                <time>2006-05-28T04:39:50Z</time>
            </trkpt>
            <trkpt lon="100.934465" lat="12.868295">
                <ele>20.805664</ele>
                <time>2006-05-28T04:40:04Z</time>
            </trkpt>
            <trkpt lon="100.934443" lat="12.868359">
                <ele>20.324951</ele>
                <time>2006-05-28T04:40:05Z</time>
            </trkpt>
            <trkpt lon="100.933971" lat="12.869453">
                <ele>18.402344</ele>
                <time>2006-05-28T04:40:22Z</time>
            </trkpt>
            <trkpt lon="100.933950" lat="12.869518">
                <ele>18.402344</ele>
                <time>2006-05-28T04:40:23Z</time>
            </trkpt>
            <trkpt lon="100.934079" lat="12.870033">
                <ele>17.441162</ele>
                <time>2006-05-28T04:40:31Z</time>
            </trkpt>
            <trkpt lon="100.934100" lat="12.870140">
                <ele>16.960449</ele>
                <time>2006-05-28T04:40:33Z</time>
            </trkpt>
            <trkpt lon="100.934250" lat="12.870462">
                <ele>18.402344</ele>
                <time>2006-05-28T04:40:43Z</time>
            </trkpt>
            <trkpt lon="100.934401" lat="12.870483">
                <ele>18.402344</ele>
                <time>2006-05-28T04:40:49Z</time>
            </trkpt>
            <trkpt lon="100.934765" lat="12.870548">
                <ele>17.441162</ele>
                <time>2006-05-28T04:41:05Z</time>
            </trkpt>
            <trkpt lon="100.935280" lat="12.870677">
                <ele>17.921753</ele>
                <time>2006-05-28T04:41:24Z</time>
            </trkpt>
            <trkpt lon="100.935967" lat="12.870827">
                <ele>19.844360</ele>
                <time>2006-05-28T04:41:44Z</time>
            </trkpt>
            <trkpt lon="100.936010" lat="12.870891">
                <ele>19.844360</ele>
                <time>2006-05-28T04:41:46Z</time>
            </trkpt>
            <trkpt lon="100.935988" lat="12.871020">
                <ele>19.363770</ele>
                <time>2006-05-28T04:41:50Z</time>
            </trkpt>
            <trkpt lon="100.935731" lat="12.871513">
                <ele>17.441162</ele>
                <time>2006-05-28T04:42:04Z</time>
            </trkpt>
            <trkpt lon="100.935709" lat="12.871728">
                <ele>16.479736</ele>
                <time>2006-05-28T04:42:10Z</time>
            </trkpt>
            <trkpt lon="100.935709" lat="12.871792">
                <ele>16.479736</ele>
                <time>2006-05-28T04:42:12Z</time>
            </trkpt>
            <trkpt lon="100.935752" lat="12.872007">
                <ele>15.518433</ele>
                <time>2006-05-28T04:42:19Z</time>
            </trkpt>
            <trkpt lon="100.936246" lat="12.872157">
                <ele>16.960449</ele>
                <time>2006-05-28T04:42:31Z</time>
            </trkpt>
            <trkpt lon="100.936396" lat="12.872264">
                <ele>17.441162</ele>
                <time>2006-05-28T04:42:35Z</time>
            </trkpt>
            <trkpt lon="100.936482" lat="12.872329">
                <ele>16.960449</ele>
                <time>2006-05-28T04:42:37Z</time>
            </trkpt>
            <trkpt lon="100.936761" lat="12.872779">
                <ele>17.921753</ele>
                <time>2006-05-28T04:42:48Z</time>
            </trkpt>
            <trkpt lon="100.936847" lat="12.872779">
                <ele>16.960449</ele>
                <time>2006-05-28T04:42:54Z</time>
            </trkpt>
            <trkpt lon="100.937169" lat="12.872286">
                <ele>18.883057</ele>
                <time>2006-05-28T04:43:11Z</time>
            </trkpt>
            <trkpt lon="100.937426" lat="12.871921">
                <ele>20.324951</ele>
                <time>2006-05-28T04:43:26Z</time>
            </trkpt>
            <trkpt lon="100.937576" lat="12.871728">
                <ele>21.286377</ele>
                <time>2006-05-28T04:43:40Z</time>
            </trkpt>
            <trkpt lon="100.937598" lat="12.871706">
                <ele>21.286377</ele>
                <time>2006-05-28T04:43:41Z</time>
            </trkpt>
            <trkpt lon="100.937555" lat="12.871706">
                <ele>21.286377</ele>
                <time>2006-05-28T04:43:46Z</time>
            </trkpt>
            <trkpt lon="100.937233" lat="12.872114">
                <ele>19.844360</ele>
                <time>2006-05-28T04:44:06Z</time>
            </trkpt>
            <trkpt lon="100.937018" lat="12.872479">
                <ele>18.402344</ele>
                <time>2006-05-28T04:44:20Z</time>
            </trkpt>
            <trkpt lon="100.936782" lat="12.872887">
                <ele>16.479736</ele>
                <time>2006-05-28T04:44:32Z</time>
            </trkpt>
            <trkpt lon="100.936525" lat="12.873745">
                <ele>16.479736</ele>
                <time>2006-05-28T04:44:48Z</time>
            </trkpt>
            <trkpt lon="100.936224" lat="12.874582">
                <ele>15.999023</ele>
                <time>2006-05-28T04:45:03Z</time>
            </trkpt>
            <trkpt lon="100.935774" lat="12.875547">
                <ele>17.441162</ele>
                <time>2006-05-28T04:45:22Z</time>
            </trkpt>
            <trkpt lon="100.935667" lat="12.875869">
                <ele>17.921753</ele>
                <time>2006-05-28T04:45:28Z</time>
            </trkpt>
            <trkpt lon="100.935688" lat="12.876019">
                <ele>18.402344</ele>
                <time>2006-05-28T04:45:31Z</time>
            </trkpt>
            <trkpt lon="100.935881" lat="12.876105">
                <ele>18.402344</ele>
                <time>2006-05-28T04:45:35Z</time>
            </trkpt>
            <trkpt lon="100.936182" lat="12.876320">
                <ele>19.844360</ele>
                <time>2006-05-28T04:45:42Z</time>
            </trkpt>
            <trkpt lon="100.936525" lat="12.876320">
                <ele>20.805664</ele>
                <time>2006-05-28T04:45:49Z</time>
            </trkpt>
            <trkpt lon="100.937426" lat="12.875762">
                <ele>20.805664</ele>
                <time>2006-05-28T04:46:07Z</time>
            </trkpt>
            <trkpt lon="100.937705" lat="12.875462">
                <ele>20.324951</ele>
                <time>2006-05-28T04:46:14Z</time>
            </trkpt>
            <trkpt lon="100.937963" lat="12.875419">
                <ele>19.844360</ele>
                <time>2006-05-28T04:46:18Z</time>
            </trkpt>
            <trkpt lon="100.938714" lat="12.875590">
                <ele>20.805664</ele>
                <time>2006-05-28T04:46:33Z</time>
            </trkpt>
            <trkpt lon="100.939057" lat="12.875719">
                <ele>21.286377</ele>
                <time>2006-05-28T04:46:45Z</time>
            </trkpt>
            <trkpt lon="100.939336" lat="12.876105">
                <ele>21.286377</ele>
                <time>2006-05-28T04:46:59Z</time>
            </trkpt>
            <trkpt lon="100.939550" lat="12.876277">
                <ele>20.324951</ele>
                <time>2006-05-28T04:47:07Z</time>
            </trkpt>
            <trkpt lon="100.939507" lat="12.876406">
                <ele>21.286377</ele>
                <time>2006-05-28T04:47:11Z</time>
            </trkpt>
            <trkpt lon="100.939014" lat="12.877479">
                <ele>22.728271</ele>
                <time>2006-05-28T04:47:40Z</time>
            </trkpt>
            <trkpt lon="100.938478" lat="12.878315">
                <ele>23.689575</ele>
                <time>2006-05-28T04:48:04Z</time>
            </trkpt>
            <trkpt lon="100.938456" lat="12.878380">
                <ele>24.170288</ele>
                <time>2006-05-28T04:48:06Z</time>
            </trkpt>
            <trkpt lon="100.938392" lat="12.878487">
                <ele>24.651001</ele>
                <time>2006-05-28T04:48:12Z</time>
            </trkpt>
            <trkpt lon="100.938306" lat="12.878530">
                <ele>24.170288</ele>
                <time>2006-05-28T04:48:15Z</time>
            </trkpt>
            <trkpt lon="100.937619" lat="12.879109">
                <ele>23.689575</ele>
                <time>2006-05-28T04:48:33Z</time>
            </trkpt>
            <trkpt lon="100.936611" lat="12.879775">
                <ele>21.766968</ele>
                <time>2006-05-28T04:48:52Z</time>
            </trkpt>
            <trkpt lon="100.935817" lat="12.880332">
                <ele>19.363770</ele>
                <time>2006-05-28T04:49:09Z</time>
            </trkpt>
            <trkpt lon="100.935602" lat="12.880461">
                <ele>16.960449</ele>
                <time>2006-05-28T04:49:20Z</time>
            </trkpt>
            <trkpt lon="100.935559" lat="12.880526">
                <ele>19.844360</ele>
                <time>2006-05-28T04:49:33Z</time>
            </trkpt>
            <trkpt lon="100.935237" lat="12.880697">
                <ele>17.921753</ele>
                <time>2006-05-28T04:49:43Z</time>
            </trkpt>
            <trkpt lon="100.934851" lat="12.880912">
                <ele>15.999023</ele>
                <time>2006-05-28T04:49:51Z</time>
            </trkpt>
            <trkpt lon="100.934122" lat="12.881470">
                <ele>15.037720</ele>
                <time>2006-05-28T04:50:08Z</time>
            </trkpt>
            <trkpt lon="100.933435" lat="12.881942">
                <ele>15.518433</ele>
                <time>2006-05-28T04:50:26Z</time>
            </trkpt>
            <trkpt lon="100.932899" lat="12.882414">
                <ele>17.441162</ele>
                <time>2006-05-28T04:50:46Z</time>
            </trkpt>
            <trkpt lon="100.932298" lat="12.882950">
                <ele>20.324951</ele>
                <time>2006-05-28T04:51:10Z</time>
            </trkpt>
            <trkpt lon="100.931718" lat="12.883422">
                <ele>21.766968</ele>
                <time>2006-05-28T04:51:33Z</time>
            </trkpt>
            <trkpt lon="100.931203" lat="12.883830">
                <ele>22.728271</ele>
                <time>2006-05-28T04:51:53Z</time>
            </trkpt>
            <trkpt lon="100.930560" lat="12.884324">
                <ele>24.170288</ele>
                <time>2006-05-28T04:52:17Z</time>
            </trkpt>
            <trkpt lon="100.929894" lat="12.884667">
                <ele>26.092896</ele>
                <time>2006-05-28T04:52:39Z</time>
            </trkpt>
            <trkpt lon="100.929766" lat="12.884817">
                <ele>26.573608</ele>
                <time>2006-05-28T04:52:50Z</time>
            </trkpt>
            <trkpt lon="100.929658" lat="12.884839">
                <ele>26.573608</ele>
                <time>2006-05-28T04:52:57Z</time>
            </trkpt>
            <trkpt lon="100.929680" lat="12.885075">
                <ele>24.651001</ele>
                <time>2006-05-28T04:53:07Z</time>
            </trkpt>
            <trkpt lon="100.929658" lat="12.885160">
                <ele>25.131714</ele>
                <time>2006-05-28T04:53:10Z</time>
            </trkpt>
            <trkpt lon="100.929594" lat="12.885139">
                <ele>25.131714</ele>
                <time>2006-05-28T04:53:19Z</time>
            </trkpt>
            <trkpt lon="100.929658" lat="12.885203">
                <ele>25.612305</ele>
                <time>2006-05-28T04:53:24Z</time>
            </trkpt>
            <trkpt lon="100.929744" lat="12.885461">
                <ele>23.689575</ele>
                <time>2006-05-28T04:53:31Z</time>
            </trkpt>
            <trkpt lon="100.929766" lat="12.885611">
                <ele>23.208984</ele>
                <time>2006-05-28T04:53:34Z</time>
            </trkpt>
            <trkpt lon="100.929830" lat="12.886147">
                <ele>22.728271</ele>
                <time>2006-05-28T04:53:47Z</time>
            </trkpt>
            <trkpt lon="100.929873" lat="12.886319">
                <ele>21.766968</ele>
                <time>2006-05-28T04:53:57Z</time>
            </trkpt>
            <trkpt lon="100.929894" lat="12.886319">
                <ele>21.286377</ele>
                <time>2006-05-28T04:54:25Z</time>
            </trkpt>
            <trkpt lon="100.929894" lat="12.886298">
                <ele>21.286377</ele>
                <time>2006-05-28T04:54:27Z</time>
            </trkpt>
            <trkpt lon="100.929723" lat="12.886169">
                <ele>23.208984</ele>
                <time>2006-05-28T04:54:39Z</time>
            </trkpt>
            <trkpt lon="100.929594" lat="12.886276">
                <ele>24.170288</ele>
                <time>2006-05-28T04:54:49Z</time>
            </trkpt>
            <trkpt lon="100.929637" lat="12.886298">
                <ele>24.651001</ele>
                <time>2006-05-28T04:54:55Z</time>
            </trkpt>
            <trkpt lon="100.929723" lat="12.886469">
                <ele>25.131714</ele>
                <time>2006-05-28T04:55:12Z</time>
            </trkpt>
            <trkpt lon="100.929787" lat="12.886555">
                <ele>24.651001</ele>
                <time>2006-05-28T04:55:26Z</time>
            </trkpt>
            <trkpt lon="100.929809" lat="12.886555">
                <ele>23.689575</ele>
                <time>2006-05-28T04:55:29Z</time>
            </trkpt>
            <trkpt lon="100.929830" lat="12.886555">
                <ele>23.208984</ele>
                <time>2006-05-28T04:55:32Z</time>
            </trkpt>
            <trkpt lon="100.929873" lat="12.886598">
                <ele>22.728271</ele>
                <time>2006-05-28T04:55:39Z</time>
            </trkpt>
            <trkpt lon="100.929937" lat="12.886620">
                <ele>23.208984</ele>
                <time>2006-05-28T04:55:55Z</time>
            </trkpt>
            <trkpt lon="100.929959" lat="12.886620">
                <ele>24.170288</ele>
                <time>2006-05-28T04:56:35Z</time>
            </trkpt>
            <trkpt lon="100.930088" lat="12.886899">
                <ele>24.651001</ele>
                <time>2006-05-28T04:56:48Z</time>
            </trkpt>
            <trkpt lon="100.930088" lat="12.886984">
                <ele>25.131714</ele>
                <time>2006-05-28T04:56:59Z</time>
            </trkpt>
            <trkpt lon="100.930045" lat="12.887049">
                <ele>27.534912</ele>
                <time>2006-05-28T04:57:13Z</time>
            </trkpt>
            <trkpt lon="100.930002" lat="12.887113">
                <ele>27.534912</ele>
                <time>2006-05-28T04:57:27Z</time>
            </trkpt>
            <trkpt lon="100.930002" lat="12.887135">
                <ele>27.534912</ele>
                <time>2006-05-28T04:57:41Z</time>
            </trkpt>
            <trkpt lon="100.930002" lat="12.887135">
                <ele>27.534912</ele>
                <time>2006-05-28T04:57:46Z</time>
            </trkpt>
            <trkpt lon="100.930045" lat="12.887177">
                <ele>27.054321</ele>
                <time>2006-05-28T04:57:51Z</time>
            </trkpt>
            <trkpt lon="100.930367" lat="12.887156">
                <ele>25.612305</ele>
                <time>2006-05-28T04:58:03Z</time>
            </trkpt>
            <trkpt lon="100.930581" lat="12.887435">
                <ele>23.208984</ele>
                <time>2006-05-28T04:58:14Z</time>
            </trkpt>
            <trkpt lon="100.930603" lat="12.887478">
                <ele>22.728271</ele>
                <time>2006-05-28T04:58:15Z</time>
            </trkpt>
            <trkpt lon="100.930624" lat="12.887628">
                <ele>22.247559</ele>
                <time>2006-05-28T04:58:19Z</time>
            </trkpt>
            <trkpt lon="100.930603" lat="12.887928">
                <ele>21.766968</ele>
                <time>2006-05-28T04:58:31Z</time>
            </trkpt>
            <trkpt lon="100.930581" lat="12.888207">
                <ele>22.247559</ele>
                <time>2006-05-28T04:58:44Z</time>
            </trkpt>
            <trkpt lon="100.930409" lat="12.888508">
                <ele>22.728271</ele>
                <time>2006-05-28T04:58:59Z</time>
            </trkpt>
            <trkpt lon="100.930238" lat="12.888873">
                <ele>22.728271</ele>
                <time>2006-05-28T04:59:12Z</time>
            </trkpt>
            <trkpt lon="100.930088" lat="12.889302">
                <ele>22.728271</ele>
                <time>2006-05-28T04:59:28Z</time>
            </trkpt>
            <trkpt lon="100.930066" lat="12.889581">
                <ele>22.728271</ele>
                <time>2006-05-28T04:59:40Z</time>
            </trkpt>
            <trkpt lon="100.930066" lat="12.889602">
                <ele>22.728271</ele>
                <time>2006-05-28T04:59:41Z</time>
            </trkpt>
            <trkpt lon="100.929959" lat="12.889817">
                <ele>22.728271</ele>
                <time>2006-05-28T04:59:53Z</time>
            </trkpt>
            <trkpt lon="100.929894" lat="12.890096">
                <ele>22.728271</ele>
                <time>2006-05-28T05:00:05Z</time>
            </trkpt>
            <trkpt lon="100.929766" lat="12.890525">
                <ele>22.728271</ele>
                <time>2006-05-28T05:00:20Z</time>
            </trkpt>
            <trkpt lon="100.929573" lat="12.890804">
                <ele>23.208984</ele>
                <time>2006-05-28T05:00:33Z</time>
            </trkpt>
            <trkpt lon="100.929487" lat="12.891276">
                <ele>23.689575</ele>
                <time>2006-05-28T05:00:51Z</time>
            </trkpt>
            <trkpt lon="100.929337" lat="12.891576">
                <ele>25.131714</ele>
                <time>2006-05-28T05:01:07Z</time>
            </trkpt>
            <trkpt lon="100.929143" lat="12.891877">
                <ele>27.534912</ele>
                <time>2006-05-28T05:01:23Z</time>
            </trkpt>
            <trkpt lon="100.928907" lat="12.892263">
                <ele>28.015503</ele>
                <time>2006-05-28T05:01:37Z</time>
            </trkpt>
            <trkpt lon="100.928800" lat="12.892628">
                <ele>28.015503</ele>
                <time>2006-05-28T05:01:49Z</time>
            </trkpt>
            <trkpt lon="100.928564" lat="12.893143">
                <ele>28.496216</ele>
                <time>2006-05-28T05:02:06Z</time>
            </trkpt>
            <trkpt lon="100.928435" lat="12.893550">
                <ele>28.015503</ele>
                <time>2006-05-28T05:02:21Z</time>
            </trkpt>
            <trkpt lon="100.928307" lat="12.893765">
                <ele>29.457520</ele>
                <time>2006-05-28T05:02:37Z</time>
            </trkpt>
            <trkpt lon="100.928178" lat="12.893765">
                <ele>28.976929</ele>
                <time>2006-05-28T05:02:46Z</time>
            </trkpt>
            <trkpt lon="100.928156" lat="12.893765">
                <ele>28.976929</ele>
                <time>2006-05-28T05:03:04Z</time>
            </trkpt>
            <trkpt lon="100.928156" lat="12.893744">
                <ele>31.380127</ele>
                <time>2006-05-28T05:03:59Z</time>
            </trkpt>
            <trkpt lon="100.928307" lat="12.893786">
                <ele>30.418823</ele>
                <time>2006-05-28T05:04:08Z</time>
            </trkpt>
            <trkpt lon="100.928392" lat="12.893786">
                <ele>30.418823</ele>
                <time>2006-05-28T05:04:14Z</time>
            </trkpt>
            <trkpt lon="100.928392" lat="12.893744">
                <ele>30.418823</ele>
                <time>2006-05-28T05:04:25Z</time>
            </trkpt>
            <trkpt lon="100.928392" lat="12.893744">
                <ele>30.899536</ele>
                <time>2006-05-28T05:04:51Z</time>
            </trkpt>
            <trkpt lon="100.928392" lat="12.893744">
                <ele>30.418823</ele>
                <time>2006-05-28T05:04:52Z</time>
            </trkpt>
            <trkpt lon="100.928285" lat="12.893765">
                <ele>30.418823</ele>
                <time>2006-05-28T05:04:57Z</time>
            </trkpt>
            <trkpt lon="100.927663" lat="12.893658">
                <ele>30.899536</ele>
                <time>2006-05-28T05:05:16Z</time>
            </trkpt>
            <trkpt lon="100.927126" lat="12.893636">
                <ele>31.380127</ele>
                <time>2006-05-28T05:05:32Z</time>
            </trkpt>
            <trkpt lon="100.926268" lat="12.893701">
                <ele>33.783447</ele>
                <time>2006-05-28T05:05:56Z</time>
            </trkpt>
            <trkpt lon="100.925496" lat="12.893786">
                <ele>36.186768</ele>
                <time>2006-05-28T05:06:18Z</time>
            </trkpt>
            <trkpt lon="100.924788" lat="12.893915">
                <ele>36.667480</ele>
                <time>2006-05-28T05:06:39Z</time>
            </trkpt>
            <trkpt lon="100.924230" lat="12.894044">
                <ele>39.551270</ele>
                <time>2006-05-28T05:06:56Z</time>
            </trkpt>
            <trkpt lon="100.923650" lat="12.894237">
                <ele>41.954712</ele>
                <time>2006-05-28T05:07:16Z</time>
            </trkpt>
            <trkpt lon="100.923114" lat="12.894495">
                <ele>44.838623</ele>
                <time>2006-05-28T05:07:36Z</time>
            </trkpt>
            <trkpt lon="100.922449" lat="12.894881">
                <ele>47.241821</ele>
                <time>2006-05-28T05:08:00Z</time>
            </trkpt>
            <trkpt lon="100.921719" lat="12.895224">
                <ele>49.164551</ele>
                <time>2006-05-28T05:08:22Z</time>
            </trkpt>
            <trkpt lon="100.920839" lat="12.895632">
                <ele>49.164551</ele>
                <time>2006-05-28T05:08:47Z</time>
            </trkpt>
            <trkpt lon="100.920775" lat="12.895696">
                <ele>49.164551</ele>
                <time>2006-05-28T05:08:49Z</time>
            </trkpt>
            <trkpt lon="100.920753" lat="12.895911">
                <ele>48.683960</ele>
                <time>2006-05-28T05:08:54Z</time>
            </trkpt>
            <trkpt lon="100.920968" lat="12.896941">
                <ele>47.722534</ele>
                <time>2006-05-28T05:09:13Z</time>
            </trkpt>
            <trkpt lon="100.921226" lat="12.898078">
                <ele>49.645264</ele>
                <time>2006-05-28T05:09:34Z</time>
            </trkpt>
            <trkpt lon="100.921440" lat="12.899001">
                <ele>50.125977</ele>
                <time>2006-05-28T05:09:52Z</time>
            </trkpt>
            <trkpt lon="100.921698" lat="12.900352">
                <ele>51.087158</ele>
                <time>2006-05-28T05:10:16Z</time>
            </trkpt>
            <trkpt lon="100.921912" lat="12.901039">
                <ele>52.048584</ele>
                <time>2006-05-28T05:10:30Z</time>
            </trkpt>
            <trkpt lon="100.921977" lat="12.901125">
                <ele>52.048584</ele>
                <time>2006-05-28T05:10:32Z</time>
            </trkpt>
            <trkpt lon="100.922298" lat="12.901576">
                <ele>53.971191</ele>
                <time>2006-05-28T05:10:43Z</time>
            </trkpt>
            <trkpt lon="100.922556" lat="12.902606">
                <ele>54.451782</ele>
                <time>2006-05-28T05:11:05Z</time>
            </trkpt>
            <trkpt lon="100.922706" lat="12.903571">
                <ele>54.932373</ele>
                <time>2006-05-28T05:11:28Z</time>
            </trkpt>
            <trkpt lon="100.922813" lat="12.904451">
                <ele>56.374512</ele>
                <time>2006-05-28T05:11:49Z</time>
            </trkpt>
            <trkpt lon="100.922620" lat="12.904601">
                <ele>56.374512</ele>
                <time>2006-05-28T05:11:56Z</time>
            </trkpt>
            <trkpt lon="100.921762" lat="12.904687">
                <ele>57.816528</ele>
                <time>2006-05-28T05:12:19Z</time>
            </trkpt>
            <trkpt lon="100.921118" lat="12.904944">
                <ele>60.219727</ele>
                <time>2006-05-28T05:12:41Z</time>
            </trkpt>
            <trkpt lon="100.920539" lat="12.905073">
                <ele>62.622925</ele>
                <time>2006-05-28T05:13:01Z</time>
            </trkpt>
            <trkpt lon="100.920131" lat="12.905180">
                <ele>66.948975</ele>
                <time>2006-05-28T05:13:16Z</time>
            </trkpt>
            <trkpt lon="100.919960" lat="12.906082">
                <ele>67.910278</ele>
                <time>2006-05-28T05:13:36Z</time>
            </trkpt>
            <trkpt lon="100.919702" lat="12.907133">
                <ele>67.429688</ele>
                <time>2006-05-28T05:13:58Z</time>
            </trkpt>
            <trkpt lon="100.919616" lat="12.907498">
                <ele>67.429688</ele>
                <time>2006-05-28T05:14:05Z</time>
            </trkpt>
            <trkpt lon="100.919423" lat="12.907670">
                <ele>67.910278</ele>
                <time>2006-05-28T05:14:10Z</time>
            </trkpt>
            <trkpt lon="100.919337" lat="12.907712">
                <ele>68.390869</ele>
                <time>2006-05-28T05:14:12Z</time>
            </trkpt>
            <trkpt lon="100.918415" lat="12.908013">
                <ele>71.274902</ele>
                <time>2006-05-28T05:14:33Z</time>
            </trkpt>
            <trkpt lon="100.918050" lat="12.908206">
                <ele>72.236206</ele>
                <time>2006-05-28T05:14:41Z</time>
            </trkpt>
            <trkpt lon="100.917513" lat="12.908914">
                <ele>71.274902</ele>
                <time>2006-05-28T05:14:57Z</time>
            </trkpt>
            <trkpt lon="100.917277" lat="12.909322">
                <ele>71.755493</ele>
                <time>2006-05-28T05:15:05Z</time>
            </trkpt>
            <trkpt lon="100.916870" lat="12.909429">
                <ele>72.236206</ele>
                <time>2006-05-28T05:15:13Z</time>
            </trkpt>
            <trkpt lon="100.916827" lat="12.909408">
                <ele>72.236206</ele>
                <time>2006-05-28T05:15:14Z</time>
            </trkpt>
            <trkpt lon="100.916226" lat="12.909000">
                <ele>71.755493</ele>
                <time>2006-05-28T05:15:26Z</time>
            </trkpt>
            <trkpt lon="100.915861" lat="12.908850">
                <ele>70.794189</ele>
                <time>2006-05-28T05:15:31Z</time>
            </trkpt>
            <trkpt lon="100.914617" lat="12.908421">
                <ele>67.429688</ele>
                <time>2006-05-28T05:15:45Z</time>
            </trkpt>
            <trkpt lon="100.913951" lat="12.908077">
                <ele>64.065063</ele>
                <time>2006-05-28T05:15:52Z</time>
            </trkpt>
            <trkpt lon="100.912557" lat="12.907755">
                <ele>56.855103</ele>
                <time>2006-05-28T05:16:06Z</time>
            </trkpt>
            <trkpt lon="100.911870" lat="12.907562">
                <ele>53.490479</ele>
                <time>2006-05-28T05:16:13Z</time>
            </trkpt>
            <trkpt lon="100.910540" lat="12.907691">
                <ele>47.241821</ele>
                <time>2006-05-28T05:16:26Z</time>
            </trkpt>
            <trkpt lon="100.908437" lat="12.907863">
                <ele>40.032104</ele>
                <time>2006-05-28T05:16:47Z</time>
            </trkpt>
            <trkpt lon="100.907042" lat="12.907820">
                <ele>35.706055</ele>
                <time>2006-05-28T05:17:01Z</time>
            </trkpt>
            <trkpt lon="100.905454" lat="12.907755">
                <ele>29.938110</ele>
                <time>2006-05-28T05:17:18Z</time>
            </trkpt>
            <trkpt lon="100.904231" lat="12.907970">
                <ele>27.534912</ele>
                <time>2006-05-28T05:17:31Z</time>
            </trkpt>
            <trkpt lon="100.903287" lat="12.908463">
                <ele>24.170288</ele>
                <time>2006-05-28T05:17:43Z</time>
            </trkpt>
            <trkpt lon="100.902858" lat="12.908700">
                <ele>23.208984</ele>
                <time>2006-05-28T05:17:49Z</time>
            </trkpt>
            <trkpt lon="100.901377" lat="12.909107">
                <ele>19.844360</ele>
                <time>2006-05-28T05:18:10Z</time>
            </trkpt>
            <trkpt lon="100.900669" lat="12.909279">
                <ele>18.883057</ele>
                <time>2006-05-28T05:18:22Z</time>
            </trkpt>
            <trkpt lon="100.900476" lat="12.909322">
                <ele>18.883057</ele>
                <time>2006-05-28T05:18:26Z</time>
            </trkpt>
            <trkpt lon="100.900455" lat="12.909536">
                <ele>19.844360</ele>
                <time>2006-05-28T05:18:32Z</time>
            </trkpt>
            <trkpt lon="100.900755" lat="12.909665">
                <ele>20.324951</ele>
                <time>2006-05-28T05:18:41Z</time>
            </trkpt>
            <trkpt lon="100.900798" lat="12.909579">
                <ele>20.805664</ele>
                <time>2006-05-28T05:18:49Z</time>
            </trkpt>
            <trkpt lon="100.900819" lat="12.909493">
                <ele>22.247559</ele>
                <time>2006-05-28T05:19:05Z</time>
            </trkpt>
            <trkpt lon="100.900862" lat="12.909322">
                <ele>21.766968</ele>
                <time>2006-05-28T05:19:25Z</time>
            </trkpt>
            <trkpt lon="100.900884" lat="12.909322">
                <ele>20.805664</ele>
                <time>2006-05-28T05:19:29Z</time>
            </trkpt>
        </trkseg>
    </trk>
</gpx>